Glendale, MA (01229)

7:25 PM EDT on July 25, 2016 (GMT -0400)
KMARICHM2 | | Change Station

Elev 1073 ft 42.36 °N, 73.37 °W | Updated 49 seconds ago

Overcast
Overcast
74.8 °F
Feels Like 77 °F
N
0.0
Wind Variable Wind from South
Gusts 0.0 mph

Today
High -- | Low -- °F
--% Chance of Precip.
Yesterday
High -- | Low -- °F
Precip. -- in
Pressure 29.77 in
Visibility 10.0 miles
Clouds Few 12000 ft
Heat Index 77 °F
Dew Point 62 °F
Humidity 64%
Rainfall 0.09 in
Snow Depth Not available.
5:39 AM 8:19 PM
Waning Gibbous, 61% visible
METAR KPSF 252254Z AUTO 21004KT 10SM -RA FEW120 24/22 A2983 RMK AO2 RAB29 SLP079 P0000 T02390217
Pressure 29.77 in
Visibility 10.0 miles
Clouds Few 12000 ft
Heat Index 77 °F
Dew Point 62 °F
Humidity 64%
Rainfall 0.09 in
Snow Depth Not available.
5:39 AM 8:19 PM
Waning Gibbous, 61% visible
METAR KPSF 252254Z AUTO 21004KT 10SM -RA FEW120 24/22 A2983 RMK AO2 RAB29 SLP079 P0000 T02390217
Record highs are possible for parts of the Northeast Monday and Tuesday, as parts of the central U.S. take a little breather from the worst of summer's dog day heat.

Expansive high pressure in the upper atmosphere will focus on parts of the East and West this week, sending heat indices well into the triple digits from the Mid-Atlantic states into the South.

10-Day Weather Forecast

Almanac

Astronomy

Jul. 25, 2016 Rise Set
Actual Time
Civil Twilight
Nautical Twilight
Astronomical Twilight
Moon
Length of Visible Light
Length of Day
Tomorrow will be .
, % of the Moon is Illuminated

Today's Extremes

State Highs State Lows

Community

WunderPhotos

Upload Photos

1,927,444 photos uploaded!

WunderBlog® & News

Nearby

Air Quality

  Air Quality AQ Index Pollutant
Not available.

Snow Depth

Station Depth Elevation

Earthquake Activity

City Distance Mag. Time & Date
Minimum magnitude displayed is 2.5.

Coastal Water Temperatures

Place Temperature

Stations

Nearby Weather Stations

Station Location Temp. Windchill Dew Point Humidity Wind Precip. Elev Updated Type
                   

Watches & Warnings

There are currently no watches in effect.